sensor_id;sensor_type;location;lat;lon;timestamp;P1;durP1;ratioP1;P2;durP2;ratioP2
52208;SDS011;38507;53.132;6.394;2022-11-25T00:00:20;16.70;;;2.92;;
52208;SDS011;38507;53.132;6.394;2022-11-25T00:02:46;16.02;;;3.00;;
52208;SDS011;38507;53.132;6.394;2022-11-25T00:05:11;19.35;;;3.30;;
52208;SDS011;38507;53.132;6.394;2022-11-25T00:07:37;22.15;;;3.25;;
52208;SDS011;38507;53.132;6.394;2022-11-25T00:10:03;21.08;;;3.15;;
52208;SDS011;38507;53.132;6.394;2022-11-25T00:12:30;18.73;;;3.78;;
52208;SDS011;38507;53.132;6.394;2022-11-25T00:14:55;16.63;;;3.60;;
52208;SDS011;38507;53.132;6.394;2022-11-25T00:17:21;18.88;;;3.00;;
52208;SDS011;38507;53.132;6.394;2022-11-25T00:19:47;19.65;;;3.13;;
52208;SDS011;38507;53.132;6.394;2022-11-25T00:22:13;14.27;;;3.70;;
52208;SDS011;38507;53.132;6.394;2022-11-25T00:24:39;16.17;;;3.40;;
52208;SDS011;38507;53.132;6.394;2022-11-25T00:27:04;20.25;;;3.70;;
52208;SDS011;38507;53.132;6.394;2022-11-25T00:29:30;14.32;;;3.05;;
52208;SDS011;38507;53.132;6.394;2022-11-25T00:31:56;17.00;;;2.92;;
52208;SDS011;38507;53.132;6.394;2022-11-25T00:34:21;17.60;;;3.17;;
52208;SDS011;38507;53.132;6.394;2022-11-25T00:36:47;14.75;;;3.45;;
52208;SDS011;38507;53.132;6.394;2022-11-25T00:39:14;17.65;;;3.38;;
52208;SDS011;38507;53.132;6.394;2022-11-25T00:41:41;14.63;;;3.20;;
52208;SDS011;38507;53.132;6.394;2022-11-25T00:47:22;20.52;;;3.38;;
52208;SDS011;38507;53.132;6.394;2022-11-25T00:49:47;24.13;;;4.72;;
52208;SDS011;38507;53.132;6.394;2022-11-25T00:52:19;21.98;;;3.92;;
52208;SDS011;38507;53.132;6.394;2022-11-25T00:54:47;16.98;;;3.75;;
52208;SDS011;38507;53.132;6.394;2022-11-25T00:57:14;16.17;;;2.90;;
52208;SDS011;38507;53.132;6.394;2022-11-25T00:59:40;14.90;;;3.10;;
52208;SDS011;38507;53.132;6.394;2022-11-25T01:02:06;23.70;;;3.63;;
52208;SDS011;38507;53.132;6.394;2022-11-25T01:04:32;16.05;;;3.53;;
52208;SDS011;38507;53.132;6.394;2022-11-25T01:06:58;22.08;;;3.80;;
52208;SDS011;38507;53.132;6.394;2022-11-25T01:09:24;18.90;;;4.38;;
52208;SDS011;38507;53.132;6.394;2022-11-25T01:11:50;25.08;;;4.15;;
52208;SDS011;38507;53.132;6.394;2022-11-25T01:14:20;22.52;;;3.78;;
52208;SDS011;38507;53.132;6.394;2022-11-25T01:16:47;16.80;;;3.60;;
52208;SDS011;38507;53.132;6.394;2022-11-25T01:19:13;20.50;;;3.55;;
52208;SDS011;38507;53.132;6.394;2022-11-25T01:21:39;13.52;;;3.03;;
52208;SDS011;38507;53.132;6.394;2022-11-25T01:24:06;19.65;;;3.65;;
52208;SDS011;38507;53.132;6.394;2022-11-25T01:26:32;16.83;;;3.85;;
52208;SDS011;38507;53.132;6.394;2022-11-25T01:29:03;21.90;;;3.75;;
52208;SDS011;38507;53.132;6.394;2022-11-25T01:31:32;16.48;;;3.28;;
52208;SDS011;38507;53.132;6.394;2022-11-25T01:34:06;16.63;;;3.70;;
52208;SDS011;38507;53.132;6.394;2022-11-25T01:36:43;15.15;;;4.43;;
52208;SDS011;38507;53.132;6.394;2022-11-25T01:39:16;18.55;;;3.83;;
52208;SDS011;38507;53.132;6.394;2022-11-25T01:41:43;19.23;;;3.38;;
52208;SDS011;38507;53.132;6.394;2022-11-25T01:44:11;19.20;;;3.75;;
52208;SDS011;38507;53.132;6.394;2022-11-25T01:47:30;14.57;;;3.72;;
52208;SDS011;38507;53.132;6.394;2022-11-25T01:49:47;17.58;;;3.28;;
52208;SDS011;38507;53.132;6.394;2022-11-25T01:52:27;17.95;;;4.05;;
52208;SDS011;38507;53.132;6.394;2022-11-25T01:55:00;14.18;;;3.58;;
52208;SDS011;38507;53.132;6.394;2022-11-25T01:57:27;16.05;;;3.45;;
52208;SDS011;38507;53.132;6.394;2022-11-25T01:59:58;19.08;;;4.03;;
52208;SDS011;38507;53.132;6.394;2022-11-25T02:02:25;21.17;;;4.40;;
52208;SDS011;38507;53.132;6.394;2022-11-25T02:04:52;20.77;;;4.05;;
52208;SDS011;38507;53.132;6.394;2022-11-25T02:07:40;17.70;;;3.72;;
52208;SDS011;38507;53.132;6.394;2022-11-25T02:10:13;16.85;;;3.60;;
52208;SDS011;38507;53.132;6.394;2022-11-25T02:12:42;18.10;;;4.18;;
52208;SDS011;38507;53.132;6.394;2022-11-25T02:15:10;20.88;;;4.15;;
52208;SDS011;38507;53.132;6.394;2022-11-25T02:17:37;27.45;;;4.32;;
52208;SDS011;38507;53.132;6.394;2022-11-25T02:25:15;20.77;;;4.20;;
52208;SDS011;38507;53.132;6.394;2022-11-25T02:27:46;20.90;;;4.68;;
52208;SDS011;38507;53.132;6.394;2022-11-25T02:30:20;16.95;;;3.85;;
52208;SDS011;38507;53.132;6.394;2022-11-25T02:32:46;18.13;;;3.90;;
52208;SDS011;38507;53.132;6.394;2022-11-25T02:38:05;15.35;;;3.92;;
52208;SDS011;38507;53.132;6.394;2022-11-25T02:40:35;20.42;;;3.47;;
52208;SDS011;38507;53.132;6.394;2022-11-25T02:43:05;18.65;;;4.07;;
52208;SDS011;38507;53.132;6.394;2022-11-25T02:46:17;20.02;;;4.45;;
52208;SDS011;38507;53.132;6.394;2022-11-25T02:48:20;17.67;;;3.97;;
52208;SDS011;38507;53.132;6.394;2022-11-25T02:50:46;17.73;;;4.35;;
52208;SDS011;38507;53.132;6.394;2022-11-25T02:53:12;16.52;;;4.47;;
52208;SDS011;38507;53.132;6.394;2022-11-25T02:55:38;17.85;;;4.55;;
52208;SDS011;38507;53.132;6.394;2022-11-25T02:58:03;20.08;;;5.47;;
52208;SDS011;38507;53.132;6.394;2022-11-25T03:00:29;23.17;;;5.07;;
52208;SDS011;38507;53.132;6.394;2022-11-25T03:02:55;18.13;;;4.25;;
52208;SDS011;38507;53.132;6.394;2022-11-25T03:05:21;24.23;;;5.55;;
52208;SDS011;38507;53.132;6.394;2022-11-25T03:07:47;24.05;;;4.43;;
52208;SDS011;38507;53.132;6.394;2022-11-25T03:10:13;15.77;;;4.28;;
52208;SDS011;38507;53.132;6.394;2022-11-25T03:12:38;18.42;;;4.50;;
52208;SDS011;38507;53.132;6.394;2022-11-25T03:15:04;15.88;;;4.32;;
52208;SDS011;38507;53.132;6.394;2022-11-25T03:17:30;19.65;;;4.22;;
52208;SDS011;38507;53.132;6.394;2022-11-25T03:19:56;21.33;;;4.70;;
52208;SDS011;38507;53.132;6.394;2022-11-25T03:22:21;22.15;;;4.60;;
52208;SDS011;38507;53.132;6.394;2022-11-25T03:24:47;21.50;;;4.63;;
52208;SDS011;38507;53.132;6.394;2022-11-25T03:27:12;24.10;;;4.50;;
52208;SDS011;38507;53.132;6.394;2022-11-25T03:29:38;21.73;;;4.97;;
52208;SDS011;38507;53.132;6.394;2022-11-25T03:32:04;26.95;;;6.00;;
52208;SDS011;38507;53.132;6.394;2022-11-25T03:34:30;22.90;;;4.78;;
52208;SDS011;38507;53.132;6.394;2022-11-25T03:36:55;22.55;;;4.15;;
52208;SDS011;38507;53.132;6.394;2022-11-25T03:39:21;21.30;;;5.20;;
52208;SDS011;38507;53.132;6.394;2022-11-25T03:41:47;26.67;;;5.18;;
52208;SDS011;38507;53.132;6.394;2022-11-25T03:44:13;23.08;;;5.90;;
52208;SDS011;38507;53.132;6.394;2022-11-25T03:46:39;21.05;;;4.60;;
52208;SDS011;38507;53.132;6.394;2022-11-25T03:49:05;24.67;;;5.72;;
52208;SDS011;38507;53.132;6.394;2022-11-25T03:51:31;16.58;;;5.25;;
52208;SDS011;38507;53.132;6.394;2022-11-25T03:53:56;20.38;;;5.25;;
52208;SDS011;38507;53.132;6.394;2022-11-25T03:56:22;20.88;;;5.90;;
52208;SDS011;38507;53.132;6.394;2022-11-25T03:58:48;21.23;;;5.55;;
52208;SDS011;38507;53.132;6.394;2022-11-25T04:01:13;22.20;;;5.57;;
52208;SDS011;38507;53.132;6.394;2022-11-25T04:03:39;17.48;;;5.32;;
52208;SDS011;38507;53.132;6.394;2022-11-25T04:06:05;20.85;;;6.43;;
52208;SDS011;38507;53.132;6.394;2022-11-25T04:08:30;23.95;;;6.25;;
52208;SDS011;38507;53.132;6.394;2022-11-25T04:10:56;27.92;;;7.22;;
52208;SDS011;38507;53.132;6.394;2022-11-25T04:13:21;18.55;;;6.75;;
52208;SDS011;38507;53.132;6.394;2022-11-25T04:15:47;23.45;;;7.05;;
52208;SDS011;38507;53.132;6.394;2022-11-25T04:18:14;22.70;;;6.97;;
52208;SDS011;38507;53.132;6.394;2022-11-25T04:20:41;17.92;;;5.80;;
52208;SDS011;38507;53.132;6.394;2022-11-25T04:23:08;24.70;;;6.88;;
52208;SDS011;38507;53.132;6.394;2022-11-25T04:25:34;17.88;;;6.70;;
52208;SDS011;38507;53.132;6.394;2022-11-25T04:28:00;26.77;;;7.32;;
52208;SDS011;38507;53.132;6.394;2022-11-25T04:30:26;21.80;;;7.32;;
52208;SDS011;38507;53.132;6.394;2022-11-25T04:32:52;26.77;;;7.20;;
52208;SDS011;38507;53.132;6.394;2022-11-25T04:35:18;23.60;;;7.22;;
52208;SDS011;38507;53.132;6.394;2022-11-25T04:37:44;20.40;;;6.57;;
52208;SDS011;38507;53.132;6.394;2022-11-25T04:40:09;24.27;;;7.10;;
52208;SDS011;38507;53.132;6.394;2022-11-25T04:42:35;25.90;;;7.75;;
52208;SDS011;38507;53.132;6.394;2022-11-25T04:45:08;15.45;;;6.18;;
52208;SDS011;38507;53.132;6.394;2022-11-25T04:47:36;18.38;;;6.70;;
52208;SDS011;38507;53.132;6.394;2022-11-25T04:50:03;22.13;;;6.47;;
52208;SDS011;38507;53.132;6.394;2022-11-25T04:52:30;24.80;;;6.93;;
52208;SDS011;38507;53.132;6.394;2022-11-25T04:54:56;25.33;;;7.53;;
52208;SDS011;38507;53.132;6.394;2022-11-25T04:57:21;28.20;;;7.38;;
52208;SDS011;38507;53.132;6.394;2022-11-25T04:59:47;20.42;;;7.28;;
52208;SDS011;38507;53.132;6.394;2022-11-25T05:04:45;21.50;;;6.50;;
52208;SDS011;38507;53.132;6.394;2022-11-25T05:07:12;24.23;;;6.75;;
52208;SDS011;38507;53.132;6.394;2022-11-25T05:09:39;23.00;;;6.85;;
52208;SDS011;38507;53.132;6.394;2022-11-25T05:12:05;28.88;;;7.07;;
52208;SDS011;38507;53.132;6.394;2022-11-25T05:14:32;18.95;;;6.15;;
52208;SDS011;38507;53.132;6.394;2022-11-25T05:16:59;27.58;;;7.30;;
52208;SDS011;38507;53.132;6.394;2022-11-25T05:19:26;23.83;;;6.68;;
52208;SDS011;38507;53.132;6.394;2022-11-25T05:21:52;22.48;;;6.50;;
52208;SDS011;38507;53.132;6.394;2022-11-25T05:24:17;23.48;;;6.43;;
52208;SDS011;38507;53.132;6.394;2022-11-25T05:26:43;24.95;;;6.95;;
52208;SDS011;38507;53.132;6.394;2022-11-25T05:29:09;23.25;;;6.30;;
52208;SDS011;38507;53.132;6.394;2022-11-25T05:31:34;22.58;;;6.85;;
52208;SDS011;38507;53.132;6.394;2022-11-25T05:34:00;29.35;;;7.30;;
52208;SDS011;38507;53.132;6.394;2022-11-25T05:36:27;22.60;;;6.53;;
52208;SDS011;38507;53.132;6.394;2022-11-25T05:38:54;18.23;;;6.35;;
52208;SDS011;38507;53.132;6.394;2022-11-25T05:41:20;23.67;;;6.55;;
52208;SDS011;38507;53.132;6.394;2022-11-25T05:43:46;20.77;;;6.75;;
52208;SDS011;38507;53.132;6.394;2022-11-25T05:46:11;26.15;;;7.13;;
52208;SDS011;38507;53.132;6.394;2022-11-25T05:48:37;26.85;;;6.95;;
52208;SDS011;38507;53.132;6.394;2022-11-25T05:51:03;23.83;;;6.97;;
52208;SDS011;38507;53.132;6.394;2022-11-25T05:53:29;22.45;;;7.28;;
52208;SDS011;38507;53.132;6.394;2022-11-25T05:55:57;23.27;;;6.97;;
52208;SDS011;38507;53.132;6.394;2022-11-25T05:58:24;22.40;;;6.90;;
52208;SDS011;38507;53.132;6.394;2022-11-25T06:00:50;26.92;;;7.30;;
52208;SDS011;38507;53.132;6.394;2022-11-25T06:03:16;30.17;;;7.50;;
52208;SDS011;38507;53.132;6.394;2022-11-25T06:05:42;29.00;;;7.60;;
52208;SDS011;38507;53.132;6.394;2022-11-25T06:08:08;22.70;;;6.70;;
52208;SDS011;38507;53.132;6.394;2022-11-25T06:10:37;24.00;;;7.13;;
52208;SDS011;38507;53.132;6.394;2022-11-25T06:13:04;24.05;;;7.03;;
52208;SDS011;38507;53.132;6.394;2022-11-25T06:15:31;24.25;;;7.15;;
52208;SDS011;38507;53.132;6.394;2022-11-25T06:17:56;21.88;;;6.95;;
52208;SDS011;38507;53.132;6.394;2022-11-25T06:20:22;21.27;;;6.65;;
52208;SDS011;38507;53.132;6.394;2022-11-25T06:22:47;17.33;;;6.78;;
52208;SDS011;38507;53.132;6.394;2022-11-25T06:25:13;21.52;;;6.78;;
52208;SDS011;38507;53.132;6.394;2022-11-25T06:27:39;24.75;;;6.68;;
52208;SDS011;38507;53.132;6.394;2022-11-25T06:30:04;25.70;;;7.18;;
52208;SDS011;38507;53.132;6.394;2022-11-25T06:32:31;17.13;;;6.45;;
52208;SDS011;38507;53.132;6.394;2022-11-25T06:34:57;19.55;;;6.38;;
52208;SDS011;38507;53.132;6.394;2022-11-25T06:37:22;17.10;;;6.13;;
52208;SDS011;38507;53.132;6.394;2022-11-25T06:39:48;24.52;;;6.50;;
52208;SDS011;38507;53.132;6.394;2022-11-25T06:42:14;18.27;;;6.07;;
52208;SDS011;38507;53.132;6.394;2022-11-25T06:44:39;16.90;;;5.70;;
52208;SDS011;38507;53.132;6.394;2022-11-25T06:47:05;18.40;;;6.20;;
52208;SDS011;38507;53.132;6.394;2022-11-25T06:49:30;18.05;;;5.75;;
52208;SDS011;38507;53.132;6.394;2022-11-25T06:51:56;21.17;;;5.53;;
52208;SDS011;38507;53.132;6.394;2022-11-25T06:54:22;17.55;;;5.47;;
52208;SDS011;38507;53.132;6.394;2022-11-25T06:56:48;19.58;;;5.45;;
52208;SDS011;38507;53.132;6.394;2022-11-25T06:59:17;19.50;;;5.20;;
52208;SDS011;38507;53.132;6.394;2022-11-25T07:01:44;18.02;;;5.38;;
52208;SDS011;38507;53.132;6.394;2022-11-25T07:04:10;15.40;;;5.03;;
52208;SDS011;38507;53.132;6.394;2022-11-25T07:06:36;16.95;;;5.32;;
52208;SDS011;38507;53.132;6.394;2022-11-25T07:09:02;15.63;;;5.30;;
52208;SDS011;38507;53.132;6.394;2022-11-25T07:11:32;17.58;;;4.70;;
52208;SDS011;38507;53.132;6.394;2022-11-25T07:14:01;14.77;;;4.55;;
52208;SDS011;38507;53.132;6.394;2022-11-25T07:16:29;13.95;;;4.50;;
52208;SDS011;38507;53.132;6.394;2022-11-25T07:18:55;20.08;;;5.00;;
52208;SDS011;38507;53.132;6.394;2022-11-25T07:21:23;14.20;;;4.43;;
52208;SDS011;38507;53.132;6.394;2022-11-25T07:23:49;15.27;;;4.60;;
52208;SDS011;38507;53.132;6.394;2022-11-25T07:26:19;16.33;;;4.53;;
52208;SDS011;38507;53.132;6.394;2022-11-25T07:28:49;13.93;;;3.55;;
52208;SDS011;38507;53.132;6.394;2022-11-25T07:31:23;13.68;;;3.92;;
52208;SDS011;38507;53.132;6.394;2022-11-25T07:33:51;10.70;;;3.60;;
52208;SDS011;38507;53.132;6.394;2022-11-25T07:36:22;15.88;;;4.25;;
52208;SDS011;38507;53.132;6.394;2022-11-25T07:38:48;13.35;;;3.97;;
52208;SDS011;38507;53.132;6.394;2022-11-25T07:41:16;11.43;;;3.67;;
52208;SDS011;38507;53.132;6.394;2022-11-25T07:43:43;12.70;;;3.20;;
52208;SDS011;38507;53.132;6.394;2022-11-25T07:48:46;14.65;;;3.78;;
52208;SDS011;38507;53.132;6.394;2022-11-25T07:51:16;16.13;;;3.90;;
52208;SDS011;38507;53.132;6.394;2022-11-25T07:53:46;9.23;;;3.00;;
52208;SDS011;38507;53.132;6.394;2022-11-25T07:56:13;10.77;;;3.90;;
52208;SDS011;38507;53.132;6.394;2022-11-25T07:58:39;10.52;;;3.53;;
52208;SDS011;38507;53.132;6.394;2022-11-25T08:01:06;14.07;;;3.80;;
52208;SDS011;38507;53.132;6.394;2022-11-25T08:03:33;14.35;;;3.45;;
52208;SDS011;38507;53.132;6.394;2022-11-25T08:06:01;14.38;;;3.58;;
52208;SDS011;38507;53.132;6.394;2022-11-25T08:08:27;16.55;;;4.13;;
52208;SDS011;38507;53.132;6.394;2022-11-25T08:10:52;12.43;;;3.47;;
52208;SDS011;38507;53.132;6.394;2022-11-25T08:13:18;12.13;;;3.65;;
52208;SDS011;38507;53.132;6.394;2022-11-25T08:15:43;13.30;;;3.22;;
52208;SDS011;38507;53.132;6.394;2022-11-25T08:18:09;13.43;;;3.85;;
52208;SDS011;38507;53.132;6.394;2022-11-25T08:20:35;13.88;;;3.85;;
52208;SDS011;38507;53.132;6.394;2022-11-25T08:23:01;15.73;;;4.00;;
52208;SDS011;38507;53.132;6.394;2022-11-25T08:25:26;15.65;;;3.90;;
52208;SDS011;38507;53.132;6.394;2022-11-25T08:27:54;12.70;;;3.80;;
52208;SDS011;38507;53.132;6.394;2022-11-25T08:30:19;13.23;;;3.22;;
52208;SDS011;38507;53.132;6.394;2022-11-25T08:32:48;13.38;;;3.30;;
52208;SDS011;38507;53.132;6.394;2022-11-25T08:35:14;13.52;;;3.60;;
52208;SDS011;38507;53.132;6.394;2022-11-25T08:37:39;16.25;;;4.55;;
52208;SDS011;38507;53.132;6.394;2022-11-25T08:40:05;10.07;;;3.80;;
52208;SDS011;38507;53.132;6.394;2022-11-25T08:42:31;14.30;;;3.50;;
52208;SDS011;38507;53.132;6.394;2022-11-25T08:44:57;13.73;;;3.72;;
52208;SDS011;38507;53.132;6.394;2022-11-25T08:47:24;11.93;;;3.53;;
52208;SDS011;38507;53.132;6.394;2022-11-25T08:49:50;10.07;;;3.60;;
52208;SDS011;38507;53.132;6.394;2022-11-25T08:52:17;9.02;;;3.22;;
52208;SDS011;38507;53.132;6.394;2022-11-25T08:54:43;9.60;;;3.95;;
52208;SDS011;38507;53.132;6.394;2022-11-25T08:57:08;14.07;;;4.28;;
52208;SDS011;38507;53.132;6.394;2022-11-25T08:59:34;10.80;;;3.80;;
52208;SDS011;38507;53.132;6.394;2022-11-25T09:02:00;14.65;;;4.18;;
52208;SDS011;38507;53.132;6.394;2022-11-25T09:04:26;15.00;;;4.43;;
52208;SDS011;38507;53.132;6.394;2022-11-25T09:06:51;14.90;;;4.50;;
52208;SDS011;38507;53.132;6.394;2022-11-25T09:09:17;15.05;;;4.30;;
52208;SDS011;38507;53.132;6.394;2022-11-25T09:11:43;12.05;;;4.55;;
52208;SDS011;38507;53.132;6.394;2022-11-25T09:14:08;14.40;;;4.57;;
52208;SDS011;38507;53.132;6.394;2022-11-25T09:16:34;13.02;;;4.25;;
52208;SDS011;38507;53.132;6.394;2022-11-25T09:19:00;17.30;;;4.28;;
52208;SDS011;38507;53.132;6.394;2022-11-25T09:21:25;12.75;;;4.38;;
52208;SDS011;38507;53.132;6.394;2022-11-25T09:23:52;12.35;;;4.20;;
52208;SDS011;38507;53.132;6.394;2022-11-25T09:26:22;10.38;;;4.03;;
52208;SDS011;38507;53.132;6.394;2022-11-25T09:28:50;13.63;;;4.25;;
52208;SDS011;38507;53.132;6.394;2022-11-25T09:31:16;8.52;;;4.07;;
52208;SDS011;38507;53.132;6.394;2022-11-25T09:33:42;12.63;;;4.05;;
52208;SDS011;38507;53.132;6.394;2022-11-25T09:36:09;10.40;;;3.88;;
52208;SDS011;38507;53.132;6.394;2022-11-25T09:38:37;11.82;;;3.63;;
52208;SDS011;38507;53.132;6.394;2022-11-25T09:41:04;10.02;;;3.92;;
52208;SDS011;38507;53.132;6.394;2022-11-25T09:43:54;17.52;;;4.07;;
52208;SDS011;38507;53.132;6.394;2022-11-25T10:02:32;10.07;;;3.35;;
52208;SDS011;38507;53.132;6.394;2022-11-25T10:05:15;9.20;;;3.40;;
52208;SDS011;38507;53.132;6.394;2022-11-25T10:07:46;11.52;;;3.38;;
52208;SDS011;38507;53.132;6.394;2022-11-25T10:10:26;12.80;;;3.40;;
52208;SDS011;38507;53.132;6.394;2022-11-25T10:12:55;8.95;;;2.85;;
52208;SDS011;38507;53.132;6.394;2022-11-25T10:15:30;10.77;;;3.22;;
52208;SDS011;38507;53.132;6.394;2022-11-25T10:18:02;12.10;;;3.30;;
52208;SDS011;38507;53.132;6.394;2022-11-25T10:20:48;11.15;;;3.88;;
52208;SDS011;38507;53.132;6.394;2022-11-25T10:23:23;10.02;;;2.92;;
52208;SDS011;38507;53.132;6.394;2022-11-25T10:25:56;13.10;;;3.45;;
52208;SDS011;38507;53.132;6.394;2022-11-25T10:28:29;10.05;;;3.33;;
52208;SDS011;38507;53.132;6.394;2022-11-25T10:31:15;14.25;;;3.55;;
52208;SDS011;38507;53.132;6.394;2022-11-25T10:38:59;10.38;;;2.78;;
52208;SDS011;38507;53.132;6.394;2022-11-25T10:41:51;11.23;;;2.55;;
52208;SDS011;38507;53.132;6.394;2022-11-25T10:44:27;15.30;;;2.90;;
52208;SDS011;38507;53.132;6.394;2022-11-25T10:52:25;15.48;;;3.55;;
52208;SDS011;38507;53.132;6.394;2022-11-25T10:54:57;10.60;;;3.00;;
52208;SDS011;38507;53.132;6.394;2022-11-25T10:57:33;10.75;;;2.83;;
52208;SDS011;38507;53.132;6.394;2022-11-25T10:59:59;13.50;;;3.13;;
52208;SDS011;38507;53.132;6.394;2022-11-25T11:02:26;13.30;;;2.53;;
52208;SDS011;38507;53.132;6.394;2022-11-25T11:07:38;12.88;;;3.10;;
52208;SDS011;38507;53.132;6.394;2022-11-25T11:10:21;10.88;;;2.92;;
52208;SDS011;38507;53.132;6.394;2022-11-25T11:13:34;11.15;;;2.83;;
52208;SDS011;38507;53.132;6.394;2022-11-25T11:15:44;16.83;;;3.10;;
52208;SDS011;38507;53.132;6.394;2022-11-25T11:20:47;13.02;;;3.35;;
52208;SDS011;38507;53.132;6.394;2022-11-25T11:23:14;16.50;;;3.40;;
52208;SDS011;38507;53.132;6.394;2022-11-25T11:25:41;12.60;;;2.67;;
52208;SDS011;38507;53.132;6.394;2022-11-25T11:28:31;14.07;;;2.85;;
52208;SDS011;38507;53.132;6.394;2022-11-25T11:31:05;18.17;;;2.75;;
52208;SDS011;38507;53.132;6.394;2022-11-25T11:36:35;13.43;;;2.67;;
52208;SDS011;38507;53.132;6.394;2022-11-25T11:44:48;16.80;;;2.75;;
52208;SDS011;38507;53.132;6.394;2022-11-25T11:50:40;13.85;;;2.78;;
52208;SDS011;38507;53.132;6.394;2022-11-25T12:05:03;13.98;;;2.65;;
52208;SDS011;38507;53.132;6.394;2022-11-25T12:15:58;18.38;;;3.25;;
52208;SDS011;38507;53.132;6.394;2022-11-25T12:27:05;17.20;;;2.55;;
52208;SDS011;38507;53.132;6.394;2022-11-25T12:29:38;14.55;;;3.13;;
52208;SDS011;38507;53.132;6.394;2022-11-25T12:34:46;15.88;;;2.72;;
52208;SDS011;38507;53.132;6.394;2022-11-25T12:37:22;17.50;;;2.92;;
52208;SDS011;38507;53.132;6.394;2022-11-25T12:39:59;12.82;;;2.47;;
52208;SDS011;38507;53.132;6.394;2022-11-25T12:42:30;13.60;;;2.13;;
52208;SDS011;38507;53.132;6.394;2022-11-25T12:45:05;10.95;;;2.38;;
52208;SDS011;38507;53.132;6.394;2022-11-25T12:47:42;22.77;;;2.95;;
52208;SDS011;38507;53.132;6.394;2022-11-25T12:50:15;14.77;;;2.92;;
52208;SDS011;38507;53.132;6.394;2022-11-25T12:53:00;22.33;;;3.03;;
52208;SDS011;38507;53.132;6.394;2022-11-25T12:55:36;14.93;;;2.97;;
52208;SDS011;38507;53.132;6.394;2022-11-25T12:58:17;18.88;;;3.03;;
52208;SDS011;38507;53.132;6.394;2022-11-25T13:06:27;13.65;;;2.63;;
52208;SDS011;38507;53.132;6.394;2022-11-25T13:17:22;16.38;;;2.65;;
52208;SDS011;38507;53.132;6.394;2022-11-25T13:19:48;15.05;;;3.00;;
52208;SDS011;38507;53.132;6.394;2022-11-25T13:22:34;21.55;;;2.88;;
52208;SDS011;38507;53.132;6.394;2022-11-25T13:24:59;19.33;;;2.58;;
52208;SDS011;38507;53.132;6.394;2022-11-25T13:29:54;17.92;;;2.83;;
52208;SDS011;38507;53.132;6.394;2022-11-25T13:32:25;21.13;;;3.22;;
52208;SDS011;38507;53.132;6.394;2022-11-25T13:37:46;24.17;;;3.65;;
52208;SDS011;38507;53.132;6.394;2022-11-25T13:42:47;14.63;;;3.03;;
52208;SDS011;38507;53.132;6.394;2022-11-25T13:45:24;21.10;;;3.20;;
52208;SDS011;38507;53.132;6.394;2022-11-25T13:47:52;19.55;;;3.28;;
52208;SDS011;38507;53.132;6.394;2022-11-25T13:50:20;20.10;;;2.80;;
52208;SDS011;38507;53.132;6.394;2022-11-25T13:52:59;19.65;;;2.72;;
52208;SDS011;38507;53.132;6.394;2022-11-25T13:55:34;21.30;;;2.75;;
52208;SDS011;38507;53.132;6.394;2022-11-25T13:58:23;16.55;;;2.30;;
52208;SDS011;38507;53.132;6.394;2022-11-25T14:00:58;17.05;;;2.97;;
52208;SDS011;38507;53.132;6.394;2022-11-25T14:05:57;19.70;;;3.15;;
52208;SDS011;38507;53.132;6.394;2022-11-25T14:20:32;23.00;;;3.50;;
52208;SDS011;38507;53.132;6.394;2022-11-25T14:25:48;16.27;;;2.00;;
52208;SDS011;38507;53.132;6.394;2022-11-25T14:30:49;22.73;;;3.38;;
52208;SDS011;38507;53.132;6.394;2022-11-25T14:33:18;17.58;;;2.92;;
52208;SDS011;38507;53.132;6.394;2022-11-25T14:35:54;15.27;;;2.40;;
52208;SDS011;38507;53.132;6.394;2022-11-25T14:38:26;17.30;;;3.15;;
52208;SDS011;38507;53.132;6.394;2022-11-25T14:40:59;15.23;;;2.72;;
52208;SDS011;38507;53.132;6.394;2022-11-25T14:43:36;14.25;;;2.58;;
52208;SDS011;38507;53.132;6.394;2022-11-25T14:46:15;17.88;;;3.15;;
52208;SDS011;38507;53.132;6.394;2022-11-25T14:48:44;16.02;;;2.58;;
52208;SDS011;38507;53.132;6.394;2022-11-25T14:51:18;15.63;;;2.33;;
52208;SDS011;38507;53.132;6.394;2022-11-25T14:53:45;19.40;;;2.55;;
52208;SDS011;38507;53.132;6.394;2022-11-25T14:56:12;13.77;;;3.15;;
52208;SDS011;38507;53.132;6.394;2022-11-25T14:58:40;15.65;;;2.65;;
52208;SDS011;38507;53.132;6.394;2022-11-25T15:01:17;14.02;;;2.85;;
52208;SDS011;38507;53.132;6.394;2022-11-25T15:03:49;14.85;;;2.72;;
52208;SDS011;38507;53.132;6.394;2022-11-25T15:06:16;20.10;;;2.53;;
52208;SDS011;38507;53.132;6.394;2022-11-25T15:08:52;15.98;;;3.53;;
52208;SDS011;38507;53.132;6.394;2022-11-25T15:11:22;15.90;;;2.45;;
52208;SDS011;38507;53.132;6.394;2022-11-25T15:14:03;19.77;;;2.65;;
52208;SDS011;38507;53.132;6.394;2022-11-25T15:16:33;15.82;;;2.90;;
52208;SDS011;38507;53.132;6.394;2022-11-25T15:19:02;13.70;;;3.15;;
52208;SDS011;38507;53.132;6.394;2022-11-25T15:21:40;21.25;;;3.20;;
52208;SDS011;38507;53.132;6.394;2022-11-25T15:24:19;15.02;;;2.50;;
52208;SDS011;38507;53.132;6.394;2022-11-25T15:26:49;20.83;;;3.35;;
52208;SDS011;38507;53.132;6.394;2022-11-25T15:29:16;13.98;;;2.38;;
52208;SDS011;38507;53.132;6.394;2022-11-25T15:31:43;14.55;;;3.25;;
52208;SDS011;38507;53.132;6.394;2022-11-25T15:34:11;16.48;;;2.63;;
52208;SDS011;38507;53.132;6.394;2022-11-25T15:36:38;18.15;;;3.10;;
52208;SDS011;38507;53.132;6.394;2022-11-25T15:41:55;18.15;;;3.50;;
52208;SDS011;38507;53.132;6.394;2022-11-25T15:44:35;25.35;;;4.72;;
52208;SDS011;38507;53.132;6.394;2022-11-25T15:47:05;15.10;;;3.35;;
52208;SDS011;38507;53.132;6.394;2022-11-25T15:49:45;16.40;;;3.97;;
52208;SDS011;38507;53.132;6.394;2022-11-25T15:52:15;26.48;;;3.75;;
52208;SDS011;38507;53.132;6.394;2022-11-25T15:54:44;15.77;;;3.75;;
52208;SDS011;38507;53.132;6.394;2022-11-25T16:15:50;19.23;;;3.28;;
52208;SDS011;38507;53.132;6.394;2022-11-25T16:18:21;15.70;;;2.90;;
52208;SDS011;38507;53.132;6.394;2022-11-25T16:20:52;15.88;;;2.85;;
52208;SDS011;38507;53.132;6.394;2022-11-25T16:23:22;17.63;;;2.70;;
52208;SDS011;38507;53.132;6.394;2022-11-25T16:28:35;17.35;;;2.75;;
52208;SDS011;38507;53.132;6.394;2022-11-25T16:31:01;13.85;;;2.70;;
52208;SDS011;38507;53.132;6.394;2022-11-25T16:33:27;16.67;;;3.10;;
52208;SDS011;38507;53.132;6.394;2022-11-25T16:35:53;18.80;;;2.90;;
52208;SDS011;38507;53.132;6.394;2022-11-25T16:38:19;18.52;;;3.45;;
52208;SDS011;38507;53.132;6.394;2022-11-25T16:40:44;18.75;;;3.20;;
52208;SDS011;38507;53.132;6.394;2022-11-25T16:43:31;16.10;;;2.83;;
52208;SDS011;38507;53.132;6.394;2022-11-25T16:45:56;12.35;;;2.95;;
52208;SDS011;38507;53.132;6.394;2022-11-25T16:48:22;20.38;;;3.70;;
52208;SDS011;38507;53.132;6.394;2022-11-25T16:50:48;17.35;;;3.55;;
52208;SDS011;38507;53.132;6.394;2022-11-25T16:53:15;14.65;;;3.05;;
52208;SDS011;38507;53.132;6.394;2022-11-25T16:55:44;17.10;;;3.25;;
52208;SDS011;38507;53.132;6.394;2022-11-25T17:00:42;18.85;;;3.40;;
52208;SDS011;38507;53.132;6.394;2022-11-25T17:03:11;20.80;;;3.50;;
52208;SDS011;38507;53.132;6.394;2022-11-25T17:05:37;14.93;;;3.15;;
52208;SDS011;38507;53.132;6.394;2022-11-25T17:08:02;19.45;;;3.38;;
52208;SDS011;38507;53.132;6.394;2022-11-25T17:10:28;18.90;;;3.72;;
52208;SDS011;38507;53.132;6.394;2022-11-25T17:12:54;25.23;;;4.50;;
52208;SDS011;38507;53.132;6.394;2022-11-25T17:15:22;12.27;;;3.00;;
52208;SDS011;38507;53.132;6.394;2022-11-25T17:17:54;16.33;;;3.83;;
52208;SDS011;38507;53.132;6.394;2022-11-25T17:20:21;19.63;;;3.80;;
52208;SDS011;38507;53.132;6.394;2022-11-25T17:22:49;18.10;;;4.25;;
52208;SDS011;38507;53.132;6.394;2022-11-25T17:25:18;18.92;;;4.43;;